Time;durP1;ratioP1;P1;durP2;ratioP2;P2;SDS_P1;SDS_P2;PMS_P1;PMS_P2;Temp;Humidity;BMP_temperature;BMP_pressure;BME280_temperature;BME280_humidity;BME280_pressure;Samples;Min_cycle;Max_cycle;Signal;HPM_P1;HPM_P2
2023/01/19 00:00:07;;;;;;;;;;;;;;;7.33;72.72;97887.44;4473682;32;34445;-66
2023/01/19 00:02:34;;;;;;;;;;;;;;;7.23;73.31;97890.09;4477105;32;35709;-66
2023/01/19 00:05:02;;;;;;;;;;;;;;;7.47;72.36;97897.66;4478672;32;35397;-65
2023/01/19 00:07:30;;;;;;;;;;;;;;;7.79;71.60;97896.50;4477798;32;35221;-67
2023/01/19 00:09:57;;;;;;;;;;;;;;;8.21;69.73;97891.66;4473171;32;33431;-71
2023/01/19 00:12:25;;;;;;;;;;;;;;;8.45;68.95;97903.69;4471087;31;34588;-66
2023/01/19 00:14:52;;;;;;;;;;;;;;;8.64;68.30;97895.59;4478218;32;34262;-65
2023/01/19 00:17:19;;;;;;;;;;;;;;;8.51;68.21;97895.94;4477727;32;35272;-65
2023/01/19 00:19:46;;;;;;;;;;;;;;;8.74;67.79;97896.38;4473350;31;33302;-67
2023/01/19 00:22:14;;;;;;;;;;;;;;;9.01;66.30;97894.69;4467417;31;35260;-65
2023/01/19 00:24:41;;;;;;;;;;;;;;;9.32;65.61;97903.19;4477414;32;34495;-65
2023/01/19 00:27:08;;;;;;;;;;;;;;;9.75;64.22;97893.56;4479892;32;34462;-66
2023/01/19 00:29:36;;;;;;;;;;;;;;;9.84;63.81;97891.81;4472923;32;33352;-66
2023/01/19 00:32:03;;;;;;;;;;;;;;;9.93;63.11;97888.19;4474235;32;33824;-66
2023/01/19 00:34:38;;;;;;;;;;;;;;;9.83;63.52;97890.97;4456777;32;34201;-65
2023/01/19 00:37:06;;;;;;;;;;;;;;;9.87;62.86;97888.81;4472303;32;33755;-64
2023/01/19 00:39:34;;;;;;;;;;;;;;;9.94;62.97;97890.69;4474527;32;33385;-65
2023/01/19 00:44:47;;;;;;;;;;;;;;;10.39;61.02;97883.50;4474898;32;35199;-66
2023/01/19 00:47:14;;;;;;;;;;;;;;;10.23;61.47;97886.88;4474440;32;35583;-64
2023/01/19 00:49:41;;;;;;;;;;;;;;;9.92;62.37;97879.34;4476598;32;33420;-67
2023/01/19 00:52:09;;;;;;;;;;;;;;;10.11;62.40;97877.44;4472259;32;35186;-64
2023/01/19 00:54:36;;;;;;;;;;;;;;;9.93;62.15;97869.50;4469832;32;34133;-63
2023/01/19 00:57:04;;;;;;;;;;;;;;;10.17;61.51;97880.31;4470605;32;33865;-65
2023/01/19 00:59:31;;;;;;;;;;;;;;;10.13;60.86;97880.81;4473761;32;33505;-64
2023/01/19 01:01:58;;;;;;;;;;;;;;;10.13;60.35;97884.31;4477942;32;35183;-64
2023/01/19 01:04:26;;;;;;;;;;;;;;;10.09;61.04;97882.97;4480098;32;35193;-64
2023/01/19 01:06:53;;;;;;;;;;;;;;;10.14;61.02;97880.66;4476732;32;34338;-65
2023/01/19 01:09:21;;;;;;;;;;;;;;;10.31;60.59;97876.28;4479534;32;34394;-64
2023/01/19 01:11:48;;;;;;;;;;;;;;;10.45;59.78;97888.22;4477418;32;33789;-65
2023/01/19 01:14:17;;;;;;;;;;;;;;;10.14;60.06;97888.66;4476667;32;34289;-69
2023/01/19 01:16:45;;;;;;;;;;;;;;;9.96;60.74;97887.88;4475222;32;34644;-66
2023/01/19 01:19:12;;;;;;;;;;;;;;;10.07;60.31;97889.47;4472795;32;33239;-67
2023/01/19 01:21:39;;;;;;;;;;;;;;;10.19;60.55;97893.56;4454863;32;793784;-69
2023/01/19 01:24:07;;;;;;;;;;;;;;;10.48;58.78;97898.59;4486289;32;33997;-69
2023/01/19 01:26:34;;;;;;;;;;;;;;;10.34;59.51;97894.69;4482567;32;34571;-68
2023/01/19 01:29:03;;;;;;;;;;;;;;;9.88;60.60;97893.16;4471843;32;32239;-69
2023/01/19 01:31:30;;;;;;;;;;;;;;;9.75;60.87;97894.41;4477644;32;34106;-70
2023/01/19 01:33:58;;;;;;;;;;;;;;;9.33;63.23;97889.69;4481266;32;34135;-69
2023/01/19 01:36:27;;;;;;;;;;;;;;;9.63;61.87;97892.97;4480822;32;34411;-67
2023/01/19 01:38:55;;;;;;;;;;;;;;;9.50;60.85;97908.53;4483662;32;34292;-70
2023/01/19 01:41:22;;;;;;;;;;;;;;;9.53;61.09;97906.41;4481938;32;33737;-68
2023/01/19 01:43:55;;;;;;;;;;;;;;;9.31;62.09;97913.03;4482087;32;33004;-70
2023/01/19 01:46:23;;;;;;;;;;;;;;;8.93;63.18;97910.63;4478160;32;33839;-67
2023/01/19 01:48:56;;;;;;;;;;;;;;;8.99;61.83;97913.53;4479274;32;34172;-68
2023/01/19 01:51:25;;;;;;;;;;;;;;;9.45;61.85;97914.34;4484230;32;35110;-69
2023/01/19 01:54:01;;;;;;;;;;;;;;;9.58;61.58;97916.62;4482765;32;34586;-68
2023/01/19 01:56:31;;;;;;;;;;;;;;;10.02;60.35;97933.53;4483824;32;35449;-68
2023/01/19 01:58:58;;;;;;;;;;;;;;;10.35;58.98;97931.12;4485729;32;33522;-68
2023/01/19 02:04:12;;;;;;;;;;;;;;;10.33;58.38;97941.13;4474142;32;34484;-66
2023/01/19 02:14:57;;;;;;;;;;;;;;;9.41;60.24;97917.47;4460742;32;34292;-69
2023/01/19 02:17:24;;;;;;;;;;;;;;;8.85;63.15;97893.50;4479638;32;35104;-71
2023/01/19 02:19:52;;;;;;;;;;;;;;;9.30;61.53;97871.28;4466249;32;35387;-71
2023/01/19 02:22:24;;;;;;;;;;;;;;;8.98;62.63;97882.47;4482075;32;33696;-72
2023/01/19 02:24:51;;;;;;;;;;;;;;;9.09;62.59;97897.47;4460749;32;35333;-73
2023/01/19 02:27:19;;;;;;;;;;;;;;;9.44;60.80;97901.97;4460556;32;34846;-71
2023/01/19 02:29:46;;;;;;;;;;;;;;;9.88;59.72;97919.87;4468295;32;34073;-71
2023/01/19 02:32:13;;;;;;;;;;;;;;;9.70;59.17;97934.09;4470171;32;34762;-71
2023/01/19 02:34:41;;;;;;;;;;;;;;;10.23;57.54;97938.53;4470066;32;35305;-71
2023/01/19 02:37:11;;;;;;;;;;;;;;;9.89;58.71;97925.09;4470171;32;34025;-70
2023/01/19 02:39:44;;;;;;;;;;;;;;;9.79;59.50;97906.47;4462062;32;33384;-71
2023/01/19 02:42:12;;;;;;;;;;;;;;;10.09;58.83;97901.69;4475344;32;34335;-72
2023/01/19 02:44:39;;;;;;;;;;;;;;;10.44;56.89;97903.44;4458055;32;35318;-71
2023/01/19 02:47:07;;;;;;;;;;;;;;;10.04;57.88;97894.09;4455638;32;33993;-72
2023/01/19 02:49:35;;;;;;;;;;;;;;;10.44;56.69;97894.56;4469667;31;32501;-71
2023/01/19 02:52:03;;;;;;;;;;;;;;;10.79;55.34;97882.87;4475102;32;33899;-70
2023/01/19 02:54:30;;;;;;;;;;;;;;;10.25;57.06;97903.63;4452135;32;34253;-70
2023/01/19 02:57:16;;;;;;;;;;;;;;;10.75;54.85;97905.56;4475626;32;34420;-71
2023/01/19 03:00:02;;;;;;;;;;;;;;;10.80;54.11;97911.28;4473198;32;33317;-71
2023/01/19 03:02:42;;;;;;;;;;;;;;;10.86;53.88;97907.97;4469264;32;34273;-72
2023/01/19 03:05:28;;;;;;;;;;;;;;;10.54;55.31;97918.53;4474557;32;34468;-71
2023/01/19 03:08:08;;;;;;;;;;;;;;;10.58;54.46;97910.00;4480165;32;34196;-69
2023/01/19 03:10:35;;;;;;;;;;;;;;;10.71;54.23;97905.06;4470762;32;34156;-68
2023/01/19 03:13:18;;;;;;;;;;;;;;;10.67;54.53;97913.59;4469831;32;33873;-70
2023/01/19 03:15:55;;;;;;;;;;;;;;;10.62;54.44;97919.41;4478617;32;35257;-71
2023/01/19 03:18:24;;;;;;;;;;;;;;;10.64;54.55;97936.13;4468972;32;34176;-71
2023/01/19 03:20:52;;;;;;;;;;;;;;;10.76;53.88;97952.75;4472248;32;33975;-72
2023/01/19 03:23:20;;;;;;;;;;;;;;;10.90;53.62;97951.31;4472058;32;34331;-70
2023/01/19 03:25:47;;;;;;;;;;;;;;;10.86;54.17;97949.97;4479044;31;35949;-70
2023/01/19 03:28:15;;;;;;;;;;;;;;;10.72;54.81;97928.16;4461943;32;33818;-69
2023/01/19 03:30:45;;;;;;;;;;;;;;;10.68;55.10;97899.19;4468053;32;32180;-69
2023/01/19 03:33:17;;;;;;;;;;;;;;;10.67;55.28;97879.63;4461713;32;34965;-69
2023/01/19 03:35:47;;;;;;;;;;;;;;;10.80;54.56;97873.84;4461676;32;33042;-69
2023/01/19 03:38:16;;;;;;;;;;;;;;;11.05;53.47;97877.44;4466655;32;33056;-68
2023/01/19 03:40:43;;;;;;;;;;;;;;;10.74;54.78;97879.81;4481864;32;33227;-68
2023/01/19 03:43:10;;;;;;;;;;;;;;;10.79;54.08;97863.31;4473828;32;33858;-67
2023/01/19 03:45:38;;;;;;;;;;;;;;;10.59;54.09;97852.84;4480486;32;35092;-71
2023/01/19 03:48:05;;;;;;;;;;;;;;;10.65;53.81;97849.50;4474162;32;34070;-70
2023/01/19 03:50:32;;;;;;;;;;;;;;;10.19;55.01;97858.81;4468848;32;34520;-68
2023/01/19 03:53:00;;;;;;;;;;;;;;;10.30;54.73;97866.56;4460095;32;32851;-69
2023/01/19 03:55:27;;;;;;;;;;;;;;;10.32;54.94;97855.72;4468775;32;34097;-68
2023/01/19 03:57:55;;;;;;;;;;;;;;;10.47;54.46;97852.31;4470599;32;34360;-69
2023/01/19 04:00:23;;;;;;;;;;;;;;;10.23;54.67;97865.50;4475367;32;34272;-68
2023/01/19 04:02:50;;;;;;;;;;;;;;;9.82;56.40;97896.44;4468819;32;33988;-68
2023/01/19 04:05:18;;;;;;;;;;;;;;;9.56;57.36;97921.28;4478995;32;33145;-67
2023/01/19 04:07:46;;;;;;;;;;;;;;;9.29;58.47;97932.88;4465126;32;34124;-69
2023/01/19 04:10:15;;;;;;;;;;;;;;;9.37;58.72;97908.91;4471641;32;33329;-70
2023/01/19 04:12:43;;;;;;;;;;;;;;;9.57;57.90;97922.97;4467125;32;33997;-70
2023/01/19 04:15:10;;;;;;;;;;;;;;;9.21;58.72;97924.75;4471819;32;34130;-68
2023/01/19 04:17:38;;;;;;;;;;;;;;;9.22;58.61;97937.97;4468746;32;34974;-68
2023/01/19 04:20:05;;;;;;;;;;;;;;;9.14;58.47;97921.84;4471653;32;33585;-68
2023/01/19 04:22:32;;;;;;;;;;;;;;;9.14;59.22;97927.19;4477721;32;33571;-68
2023/01/19 04:25:00;;;;;;;;;;;;;;;9.19;58.58;97914.25;4474820;32;34263;-68
2023/01/19 04:27:27;;;;;;;;;;;;;;;9.45;57.79;97905.50;4475484;32;34252;-68
2023/01/19 04:29:55;;;;;;;;;;;;;;;9.54;56.59;97891.22;4472453;32;33096;-67
2023/01/19 04:32:22;;;;;;;;;;;;;;;9.43;56.74;97888.78;4479534;32;35238;-71
2023/01/19 04:34:50;;;;;;;;;;;;;;;9.07;58.06;97900.25;4477471;32;34390;-68
2023/01/19 04:37:17;;;;;;;;;;;;;;;8.96;57.86;97892.47;4467389;32;34567;-68
2023/01/19 04:39:45;;;;;;;;;;;;;;;8.56;58.62;97892.81;4474527;32;33551;-71
2023/01/19 04:42:12;;;;;;;;;;;;;;;8.58;59.50;97880.19;4472729;31;33816;-69
2023/01/19 04:44:39;;;;;;;;;;;;;;;9.10;57.86;97880.44;4481337;32;34297;-67
2023/01/19 04:47:07;;;;;;;;;;;;;;;8.90;57.25;97892.25;4470153;32;34739;-68
2023/01/19 04:49:37;;;;;;;;;;;;;;;8.95;56.65;97884.59;4480473;31;33474;-68
2023/01/19 04:52:05;;;;;;;;;;;;;;;8.91;57.19;97892.06;4476453;31;34715;-67
2023/01/19 04:54:32;;;;;;;;;;;;;;;8.51;57.81;97911.09;4480299;31;32881;-67
2023/01/19 04:56:59;;;;;;;;;;;;;;;8.70;57.28;97912.81;4476165;32;33680;-67
2023/01/19 04:59:27;;;;;;;;;;;;;;;8.08;59.11;97918.59;4468320;31;34454;-68
2023/01/19 05:01:55;;;;;;;;;;;;;;;8.02;59.94;97919.16;4470358;32;34798;-70
2023/01/19 05:04:23;;;;;;;;;;;;;;;7.92;59.53;97918.34;4479516;32;34185;-67
2023/01/19 05:06:50;;;;;;;;;;;;;;;8.20;58.80;97921.13;4467343;32;32809;-68
2023/01/19 05:09:18;;;;;;;;;;;;;;;7.96;59.34;97919.78;4478963;32;33404;-68
2023/01/19 05:11:45;;;;;;;;;;;;;;;8.17;59.64;97906.25;4477280;32;35114;-68
2023/01/19 05:14:12;;;;;;;;;;;;;;;8.40;58.61;97910.28;4474369;32;35077;-68
2023/01/19 05:16:40;;;;;;;;;;;;;;;8.83;57.31;97908.84;4466608;32;34280;-66
2023/01/19 05:19:07;;;;;;;;;;;;;;;9.02;56.53;97931.03;4474073;32;33778;-67
2023/01/19 05:21:34;;;;;;;;;;;;;;;8.99;56.72;97937.53;4471362;32;34261;-68
2023/01/19 05:24:02;;;;;;;;;;;;;;;9.18;55.79;97955.28;4476798;32;34086;-69
2023/01/19 05:26:30;;;;;;;;;;;;;;;9.16;55.04;97962.59;4477806;32;34077;-69
2023/01/19 05:28:57;;;;;;;;;;;;;;;8.88;56.27;97975.06;4480721;32;34270;-69
2023/01/19 05:31:24;;;;;;;;;;;;;;;9.18;55.98;97975.78;4468781;32;34111;-70
2023/01/19 05:33:52;;;;;;;;;;;;;;;9.41;55.11;97977.06;4474555;32;34131;-71
2023/01/19 05:36:19;;;;;;;;;;;;;;;9.59;54.66;97971.72;4481975;32;34287;-69
2023/01/19 05:38:46;;;;;;;;;;;;;;;9.76;54.39;97970.06;4477201;32;32437;-69
2023/01/19 05:41:14;;;;;;;;;;;;;;;9.91;53.86;97970.34;4480977;32;34248;-69
2023/01/19 05:43:41;;;;;;;;;;;;;;;9.78;54.05;97962.72;4474050;32;34113;-69
2023/01/19 05:46:08;;;;;;;;;;;;;;;9.97;53.81;97953.69;4469171;32;34130;-72
2023/01/19 05:48:35;;;;;;;;;;;;;;;9.95;53.69;97964.56;4467680;32;33798;-69
2023/01/19 05:51:04;;;;;;;;;;;;;;;9.80;54.30;97942.87;4472687;32;33635;-70
2023/01/19 05:53:31;;;;;;;;;;;;;;;9.72;54.66;97947.28;4475124;32;34423;-68
2023/01/19 05:56:02;;;;;;;;;;;;;;;9.63;54.98;97957.09;4477451;32;32762;-68
2023/01/19 05:58:30;;;;;;;;;;;;;;;9.57;55.51;97942.50;4473633;31;34241;-68
2023/01/19 06:01:00;;;;;;;;;;;;;;;9.70;55.54;97943.97;4475386;32;33850;-69
2023/01/19 06:03:28;;;;;;;;;;;;;;;8.81;57.96;97937.47;4473488;32;33445;-69
2023/01/19 06:05:58;;;;;;;;;;;;;;;9.00;57.57;97949.06;4474453;32;33840;-67
2023/01/19 06:08:25;;;;;;;;;;;;;;;8.09;60.44;97952.28;4482005;32;32621;-68
2023/01/19 06:10:53;;;;;;;;;;;;;;;8.73;58.50;97952.53;4469237;32;34757;-70
2023/01/19 06:13:20;;;;;;;;;;;;;;;9.31;56.59;97933.56;4469981;32;34469;-69
2023/01/19 06:15:47;;;;;;;;;;;;;;;9.17;56.89;97918.03;4468122;32;33181;-72
2023/01/19 06:18:15;;;;;;;;;;;;;;;9.23;57.22;97917.44;4466856;32;33451;-70
2023/01/19 06:20:42;;;;;;;;;;;;;;;9.18;56.44;97922.38;4468869;32;34361;-72
2023/01/19 06:23:09;;;;;;;;;;;;;;;9.00;57.86;97907.19;4473735;32;34306;-71
2023/01/19 06:25:38;;;;;;;;;;;;;;;8.76;58.18;97882.87;4473681;32;33198;-71
2023/01/19 06:28:05;;;;;;;;;;;;;;;8.03;60.53;97888.91;4468474;32;34533;-70
2023/01/19 06:30:32;;;;;;;;;;;;;;;8.99;57.59;97889.50;4477059;32;35147;-71
2023/01/19 06:32:59;;;;;;;;;;;;;;;8.53;59.04;97885.94;4467311;32;35114;-70
2023/01/19 06:35:27;;;;;;;;;;;;;;;8.50;58.75;97910.22;4480634;32;35260;-72
2023/01/19 06:37:54;;;;;;;;;;;;;;;7.66;62.47;97931.41;4479598;31;34178;-70
2023/01/19 06:40:22;;;;;;;;;;;;;;;8.08;61.08;97942.59;4473905;32;35189;-69
2023/01/19 06:42:49;;;;;;;;;;;;;;;8.06;61.45;97933.91;4467669;32;35431;-69
2023/01/19 06:45:16;;;;;;;;;;;;;;;7.54;63.39;97956.50;4471324;32;34435;-70
2023/01/19 06:47:46;;;;;;;;;;;;;;;8.05;61.52;97964.19;4472127;32;34030;-69
2023/01/19 06:50:13;;;;;;;;;;;;;;;7.75;62.31;97954.53;4467657;32;33744;-70
2023/01/19 06:52:41;;;;;;;;;;;;;;;7.74;63.03;97946.69;4468583;32;34344;-69
2023/01/19 06:55:09;;;;;;;;;;;;;;;7.75;63.22;97937.72;4472073;32;34772;-69
2023/01/19 06:57:37;;;;;;;;;;;;;;;7.76;61.69;97929.59;4479959;32;34195;-70
2023/01/19 07:00:06;;;;;;;;;;;;;;;8.10;61.59;97935.31;4466729;32;34911;-68
2023/01/19 07:02:34;;;;;;;;;;;;;;;7.67;62.98;97930.44;4472846;32;34338;-69
2023/01/19 07:05:02;;;;;;;;;;;;;;;8.00;63.02;97917.66;4473893;32;35197;-71
2023/01/19 07:07:30;;;;;;;;;;;;;;;8.15;61.46;97925.06;4472103;32;33133;-70
2023/01/19 07:09:57;;;;;;;;;;;;;;;7.77;63.07;97925.97;4481930;32;34248;-68
2023/01/19 07:12:24;;;;;;;;;;;;;;;8.69;60.28;97927.16;4477247;32;33978;-70
2023/01/19 07:14:51;;;;;;;;;;;;;;;8.45;61.27;97936.50;4471827;32;33643;-69
2023/01/19 07:17:19;;;;;;;;;;;;;;;8.68;59.79;97934.31;4477547;32;33390;-69
2023/01/19 07:19:46;;;;;;;;;;;;;;;8.09;63.23;97940.75;4468443;32;33036;-68
2023/01/19 07:22:13;;;;;;;;;;;;;;;8.16;62.38;97952.56;4471068;32;34730;-67
2023/01/19 07:24:41;;;;;;;;;;;;;;;8.59;60.76;97953.84;4466807;32;35140;-66
2023/01/19 07:27:10;;;;;;;;;;;;;;;9.26;58.76;97957.19;4466080;32;33505;-66
2023/01/19 07:29:38;;;;;;;;;;;;;;;9.59;57.38;97965.53;4479371;32;34191;-67
2023/01/19 07:32:06;;;;;;;;;;;;;;;9.43;58.40;97977.72;4476675;31;35334;-68
2023/01/19 07:34:33;;;;;;;;;;;;;;;9.52;57.29;97978.66;4479145;32;33433;-67
2023/01/19 07:37:00;;;;;;;;;;;;;;;9.92;56.26;97983.56;4478219;31;33465;-67
2023/01/19 07:39:29;;;;;;;;;;;;;;;9.89;56.10;97985.72;4477885;32;34274;-66
2023/01/19 07:41:56;;;;;;;;;;;;;;;9.40;57.62;97980.69;4481119;32;34043;-68
2023/01/19 07:44:23;;;;;;;;;;;;;;;9.04;60.16;97985.12;4469288;32;35827;-68
2023/01/19 07:46:51;;;;;;;;;;;;;;;8.91;59.97;97981.97;4466251;32;33350;-68
2023/01/19 07:49:19;;;;;;;;;;;;;;;9.69;57.24;97985.84;4473590;32;34596;-68
2023/01/19 07:51:46;;;;;;;;;;;;;;;9.76;57.12;97991.44;4477029;32;34347;-68
2023/01/19 07:54:14;;;;;;;;;;;;;;;9.74;57.02;97996.09;4464925;32;34173;-69
2023/01/19 07:56:41;;;;;;;;;;;;;;;9.29;58.86;97989.75;4476507;32;33338;-69
2023/01/19 07:59:09;;;;;;;;;;;;;;;9.66;57.81;98001.31;4475663;32;34026;-69
2023/01/19 08:01:36;;;;;;;;;;;;;;;9.61;58.58;97996.44;4466224;32;35571;-68
2023/01/19 08:04:04;;;;;;;;;;;;;;;9.57;57.99;98001.25;4465686;32;34175;-67
2023/01/19 08:06:32;;;;;;;;;;;;;;;9.44;58.65;98003.47;4468343;32;34501;-68
2023/01/19 08:09:00;;;;;;;;;;;;;;;10.04;56.52;98001.03;4455329;32;32265;-69
2023/01/19 08:11:27;;;;;;;;;;;;;;;9.53;57.86;97978.53;4479330;32;35909;-69
2023/01/19 08:13:54;;;;;;;;;;;;;;;9.59;58.28;97989.56;4470129;31;34599;-69
2023/01/19 08:16:21;;;;;;;;;;;;;;;9.86;57.58;97981.50;4479589;32;34100;-68
2023/01/19 08:18:49;;;;;;;;;;;;;;;9.28;59.02;97972.06;4473236;32;33637;-67
2023/01/19 08:21:16;;;;;;;;;;;;;;;9.50;59.07;97975.28;4466452;31;34926;-69
2023/01/19 08:23:44;;;;;;;;;;;;;;;9.51;58.09;97974.31;4467025;32;34213;-69
2023/01/19 08:26:38;;;;;;;;;;;;;;;8.88;61.43;97977.75;4452707;32;34206;-68
2023/01/19 08:29:05;;;;;;;;;;;;;;;9.16;59.51;97972.44;4462353;32;34402;-69
2023/01/19 08:31:33;;;;;;;;;;;;;;;8.67;60.87;97977.12;4481855;31;33548;-68
2023/01/19 08:34:01;;;;;;;;;;;;;;;8.88;59.79;97975.06;4474475;31;34194;-68
2023/01/19 08:36:28;;;;;;;;;;;;;;;8.67;61.69;97983.31;4474384;32;33205;-69
2023/01/19 08:38:55;;;;;;;;;;;;;;;9.40;59.06;97991.38;4472436;32;33849;-69
2023/01/19 08:41:23;;;;;;;;;;;;;;;9.12;59.07;97997.72;4453442;32;35285;-69
2023/01/19 08:43:50;;;;;;;;;;;;;;;9.00;59.74;98005.09;4469830;32;34191;-69
2023/01/19 08:46:20;;;;;;;;;;;;;;;9.25;58.85;97999.06;4478761;32;34132;-69
2023/01/19 08:48:48;;;;;;;;;;;;;;;9.63;57.31;98006.97;4473002;32;33621;-69
2023/01/19 08:51:15;;;;;;;;;;;;;;;9.86;56.82;98002.06;4483746;32;34517;-68
2023/01/19 08:53:43;;;;;;;;;;;;;;;9.89;56.92;98001.75;4467677;32;34926;-70
2023/01/19 08:56:13;;;;;;;;;;;;;;;9.66;57.25;97996.00;4466903;32;33072;-69
2023/01/19 08:58:41;;;;;;;;;;;;;;;9.94;56.06;97991.41;4479575;32;33245;-68
2023/01/19 09:01:10;;;;;;;;;;;;;;;10.08;55.94;97990.91;4470397;32;35142;-68
2023/01/19 09:03:37;;;;;;;;;;;;;;;10.12;55.63;97996.78;4470703;32;33930;-69
2023/01/19 09:06:08;;;;;;;;;;;;;;;9.20;58.70;97993.31;4466998;32;32979;-67
2023/01/19 09:08:35;;;;;;;;;;;;;;;9.70;56.73;97990.22;4465940;32;33729;-68
2023/01/19 09:11:04;;;;;;;;;;;;;;;9.64;57.32;97985.47;4477182;32;35844;-69
2023/01/19 09:13:31;;;;;;;;;;;;;;;9.42;56.87;97994.75;4482147;32;33613;-68
2023/01/19 09:16:00;;;;;;;;;;;;;;;9.80;56.84;98009.69;4467239;32;33439;-69
2023/01/19 09:18:28;;;;;;;;;;;;;;;9.73;56.58;98018.47;4459020;32;35178;-70
2023/01/19 09:20:56;;;;;;;;;;;;;;;9.46;58.21;98012.13;4471518;32;34315;-69
2023/01/19 09:23:24;;;;;;;;;;;;;;;9.03;58.11;98010.97;4460557;32;34291;-68
2023/01/19 09:25:55;;;;;;;;;;;;;;;9.47;57.21;98004.97;4467286;32;33408;-70
2023/01/19 09:28:22;;;;;;;;;;;;;;;8.93;58.94;98006.69;4470220;32;34241;-67
2023/01/19 09:30:50;;;;;;;;;;;;;;;8.36;60.50;98002.16;4470444;32;34069;-70
2023/01/19 09:33:18;;;;;;;;;;;;;;;8.16;60.97;97996.03;4479026;32;33669;-68
2023/01/19 09:35:45;;;;;;;;;;;;;;;7.73;63.01;97996.44;4472667;32;34388;-67
2023/01/19 09:38:14;;;;;;;;;;;;;;;7.59;64.08;98013.69;4477874;32;34448;-68
2023/01/19 09:40:42;;;;;;;;;;;;;;;7.58;62.99;98011.16;4477101;32;34002;-69
2023/01/19 09:43:12;;;;;;;;;;;;;;;7.36;64.38;98006.91;4453549;32;35326;-69
2023/01/19 09:45:44;;;;;;;;;;;;;;;7.55;64.08;97990.97;4473498;32;33263;-68
2023/01/19 09:48:19;;;;;;;;;;;;;;;8.22;60.94;97994.63;4477102;32;33931;-69
2023/01/19 09:50:47;;;;;;;;;;;;;;;7.64;62.59;98003.47;4460063;32;35284;-70
2023/01/19 09:53:33;;;;;;;;;;;;;;;7.54;62.46;97999.94;4469755;32;34376;-68
2023/01/19 09:56:00;;;;;;;;;;;;;;;7.55;62.32;97993.62;4475334;32;34330;-68
2023/01/19 09:58:28;;;;;;;;;;;;;;;6.93;64.81;98002.72;4479405;31;34041;-67
2023/01/19 10:00:58;;;;;;;;;;;;;;;7.05;65.18;98016.75;4476673;32;34358;-68
2023/01/19 10:03:25;;;;;;;;;;;;;;;7.53;63.71;98013.38;4467558;32;33228;-69
2023/01/19 10:06:03;;;;;;;;;;;;;;;6.81;64.79;98015.28;4475265;31;33887;-69
2023/01/19 10:08:33;;;;;;;;;;;;;;;6.88;65.48;98015.59;4456758;31;34224;-68
2023/01/19 10:11:01;;;;;;;;;;;;;;;7.40;64.00;98016.31;4453640;32;34133;-67
2023/01/19 10:13:48;;;;;;;;;;;;;;;7.00;64.20;98023.34;4471565;32;33860;-69
2023/01/19 10:16:21;;;;;;;;;;;;;;;8.01;61.10;98016.09;4479747;32;34352;-68
2023/01/19 10:18:50;;;;;;;;;;;;;;;7.42;62.49;98011.69;4478480;32;33757;-68
2023/01/19 10:21:30;;;;;;;;;;;;;;;7.51;62.61;98015.34;4472911;32;35310;-67
2023/01/19 10:23:58;;;;;;;;;;;;;;;6.88;64.32;98015.59;4469139;32;35610;-67
2023/01/19 10:26:28;;;;;;;;;;;;;;;6.99;64.11;98020.78;4460937;32;33121;-67
2023/01/19 10:29:04;;;;;;;;;;;;;;;7.00;64.16;98022.50;4469169;32;34366;-66
2023/01/19 10:31:31;;;;;;;;;;;;;;;6.87;65.55;98030.72;4470657;32;34360;-68
2023/01/19 10:33:59;;;;;;;;;;;;;;;7.03;62.91;98022.25;4455432;32;35189;-67
2023/01/19 10:36:33;;;;;;;;;;;;;;;7.07;63.58;98022.81;4476967;31;32194;-69
2023/01/19 10:39:03;;;;;;;;;;;;;;;6.58;65.35;98032.34;4472486;32;33960;-68
2023/01/19 10:41:40;;;;;;;;;;;;;;;7.28;63.62;98036.03;4469097;32;34348;-70
2023/01/19 10:44:09;;;;;;;;;;;;;;;7.19;63.26;98038.53;4479836;32;34057;-68
2023/01/19 10:46:46;;;;;;;;;;;;;;;7.47;62.82;98039.56;4474589;31;33521;-69
2023/01/19 10:49:32;;;;;;;;;;;;;;;7.34;63.48;98046.12;4472352;31;34741;-71
2023/01/19 10:52:00;;;;;;;;;;;;;;;7.72;61.38;98036.53;4468287;32;35037;-67
2023/01/19 10:54:28;;;;;;;;;;;;;;;7.43;61.53;98051.47;4463894;32;35075;-69
2023/01/19 10:56:56;;;;;;;;;;;;;;;8.03;60.19;98038.09;4474719;32;34310;-67
2023/01/19 10:59:28;;;;;;;;;;;;;;;8.15;59.49;98044.13;4469188;32;34164;-70
2023/01/19 11:02:16;;;;;;;;;;;;;;;8.63;58.34;98052.13;4479093;32;34967;-67
2023/01/19 11:04:44;;;;;;;;;;;;;;;8.00;60.59;98051.72;4452794;32;33874;-69
2023/01/19 11:07:19;;;;;;;;;;;;;;;7.42;60.79;98059.63;4469716;32;33449;-68
2023/01/19 11:09:46;;;;;;;;;;;;;;;7.58;62.12;98046.62;4475315;32;32945;-68
2023/01/19 11:12:23;;;;;;;;;;;;;;;7.43;62.75;98047.97;4481007;31;34275;-68
2023/01/19 11:14:50;;;;;;;;;;;;;;;7.33;63.28;98042.63;4455471;32;33965;-68
2023/01/19 11:17:18;;;;;;;;;;;;;;;7.60;60.83;98041.97;4476345;32;34385;-67
2023/01/19 11:19:53;;;;;;;;;;;;;;;7.68;61.04;98041.31;4472978;32;33423;-68
2023/01/19 11:22:22;;;;;;;;;;;;;;;7.39;62.10;98028.78;4466781;32;33131;-70
2023/01/19 11:24:49;;;;;;;;;;;;;;;7.33;62.66;98034.63;4452783;32;35079;-68
2023/01/19 11:27:17;;;;;;;;;;;;;;;7.25;62.81;98031.81;4458007;32;32097;-66
2023/01/19 11:29:46;;;;;;;;;;;;;;;7.34;62.61;98040.81;4470270;31;35282;-67
2023/01/19 11:32:19;;;;;;;;;;;;;;;6.95;63.91;98036.19;4476800;32;34514;-66
2023/01/19 11:34:46;;;;;;;;;;;;;;;7.47;62.50;98041.38;4458052;32;35550;-66
2023/01/19 11:37:19;;;;;;;;;;;;;;;7.40;62.70;98045.59;4475622;32;33311;-65
2023/01/19 11:39:48;;;;;;;;;;;;;;;7.65;62.02;98046.91;4464562;31;34009;-66
2023/01/19 11:42:15;;;;;;;;;;;;;;;6.97;64.08;98044.88;4449519;32;34327;-67
2023/01/19 11:45:02;;;;;;;;;;;;;;;8.25;59.61;98044.13;4458070;32;34512;-70
2023/01/19 11:47:39;;;;;;;;;;;;;;;7.38;62.99;98037.75;4470085;32;33270;-68
2023/01/19 11:50:22;;;;;;;;;;;;;;;7.38;62.49;98043.06;4472955;32;32806;-66
2023/01/19 11:52:59;;;;;;;;;;;;;;;7.27;63.93;98045.81;4467852;32;35513;-67
2023/01/19 11:55:26;;;;;;;;;;;;;;;7.57;61.70;98052.91;4463789;32;33976;-68
2023/01/19 11:57:53;;;;;;;;;;;;;;;7.53;62.05;98051.50;4467747;32;34525;-69
2023/01/19 12:00:23;;;;;;;;;;;;;;;7.65;61.99;98053.06;4467625;32;33650;-67
2023/01/19 12:02:52;;;;;;;;;;;;;;;7.26;62.62;98054.81;4468854;32;34573;-67
2023/01/19 12:05:19;;;;;;;;;;;;;;;7.94;61.20;98054.94;4453625;32;34646;-67
2023/01/19 12:07:47;;;;;;;;;;;;;;;8.19;59.18;98058.03;4455337;32;32585;-67
2023/01/19 12:10:17;;;;;;;;;;;;;;;7.40;62.10;98066.88;4468173;32;34279;-68
2023/01/19 12:12:44;;;;;;;;;;;;;;;7.67;60.22;98066.22;4470027;32;34401;-67
2023/01/19 12:15:17;;;;;;;;;;;;;;;7.39;62.20;98068.72;4454760;32;35660;-66
2023/01/19 12:17:47;;;;;;;;;;;;;;;7.67;61.11;98074.22;4469850;31;32108;-68
2023/01/19 12:20:26;;;;;;;;;;;;;;;7.54;60.85;98081.63;4470466;32;32426;-69
2023/01/19 12:22:56;;;;;;;;;;;;;;;7.33;62.04;98087.03;4468794;32;34296;-68
2023/01/19 12:25:30;;;;;;;;;;;;;;;6.88;63.42;98096.22;4477139;32;34339;-67
2023/01/19 12:27:58;;;;;;;;;;;;;;;7.33;61.43;98095.84;4457995;32;33616;-67
2023/01/19 12:30:26;;;;;;;;;;;;;;;6.69;63.96;98096.94;4461061;32;34149;-68
2023/01/19 12:33:12;;;;;;;;;;;;;;;6.49;64.75;98098.62;4467151;32;35332;-68
2023/01/19 12:35:59;;;;;;;;;;;;;;;6.85;63.57;98103.63;4468438;32;34326;-68
2023/01/19 12:38:45;;;;;;;;;;;;;;;6.73;63.73;98102.84;4467354;31;33763;-69
2023/01/19 12:41:32;;;;;;;;;;;;;;;7.20;62.87;98104.06;4469401;32;33879;-67
2023/01/19 12:44:08;;;;;;;;;;;;;;;7.13;63.31;98116.22;4471088;32;34153;-68
2023/01/19 12:46:38;;;;;;;;;;;;;;;7.51;60.97;98114.69;4476706;32;32996;-68
2023/01/19 12:49:09;;;;;;;;;;;;;;;6.91;63.38;98124.38;4478085;32;33883;-67
2023/01/19 12:51:37;;;;;;;;;;;;;;;7.24;62.31;98118.78;4469820;32;34202;-67
2023/01/19 12:54:06;;;;;;;;;;;;;;;7.39;61.91;98129.94;4462623;32;34458;-67
2023/01/19 12:56:34;;;;;;;;;;;;;;;7.60;60.85;98124.53;4456315;32;33325;-69
2023/01/19 12:59:02;;;;;;;;;;;;;;;6.95;63.34;98123.97;4470600;32;34398;-69
2023/01/19 13:01:29;;;;;;;;;;;;;;;6.83;63.98;98125.00;4457271;32;33486;-69
2023/01/19 13:04:08;;;;;;;;;;;;;;;6.64;64.50;98125.72;4469865;31;34433;-69
2023/01/19 13:06:47;;;;;;;;;;;;;;;6.89;64.49;98145.75;4471352;32;35550;-66
2023/01/19 13:09:27;;;;;;;;;;;;;;;6.87;63.94;98160.16;4472207;32;33620;-68
2023/01/19 13:12:09;;;;;;;;;;;;;;;6.99;63.14;98162.63;4467727;32;34167;-67
2023/01/19 13:14:37;;;;;;;;;;;;;;;7.05;62.96;98163.09;4469223;32;34541;-68
2023/01/19 13:17:23;;;;;;;;;;;;;;;6.38;64.81;98175.75;4471123;31;34812;-68
2023/01/19 13:19:51;;;;;;;;;;;;;;;6.38;65.56;98177.56;4472284;32;31628;-66